Amagimaru — JG5745 — position and weather

sailwx.info

Track history (hours):
 
Tides and Currents Weather Stations Pressure Air Temp Water Temp Dewpoint Dewpoint Depression Visibility Wind Speed Wind Dir Waves Ship Positions

Amagimaru

Last reported at 2018-Jun-20 04:52 UTC. Time now 2018-Jun-20 05:16 UTC.
Position N 35°09' E 139°46'.

Length 38 m; draft 3.4 m.

Type: Tug. MMSI: 431101065.

Date/timePositionNaut miles runAvg speedWind from/ knotsBaromVisibWave heightAir tempDewpointWater temp
2018-Jun-20 04:52N 35°09' E 139°46'2 5.9
2018-Jun-20 04:30N 35°11' E 139°46'3 5.9
2018-Jun-20 04:00N 35°13' E 139°43'0 0.0
2018-Jun-20 03:28N 35°13' E 139°43'0 0.0
2018-Jun-20 03:00N 35°13' E 139°43'0 0.0
2018-Jun-20 02:30N 35°13' E 139°43'0 0.0
2018-Jun-20 02:00N 35°13' E 139°43'0 0.0
2018-Jun-20 01:28N 35°13' E 139°43'0 0.0
2018-Jun-19 23:59N 35°13' E 139°43'1 2.7
2018-Jun-19 23:29N 35°13' E 139°45'3 6.6
2018-Jun-19 22:58N 35°10' E 139°47'3 4.6
2018-Jun-19 22:25N 35°12' E 139°46'3 2.3
2018-Jun-19 21:18N 35°13' E 139°43'5 9.7
2018-Jun-19 20:50N 35°10' E 139°47'3 5.6
2018-Jun-19 20:21N 35°12' E 139°45'1 0.2
2018-Jun-19 16:15N 35°13' E 139°46'1 5.2
2018-Jun-19 15:58N 35°14' E 139°45'2 1.0
2018-Jun-19 13:52N 35°13' E 139°43'0 0.0
2018-Jun-19 13:27N 35°13' E 139°43'0 0.0
2018-Jun-19 12:52N 35°13' E 139°43'0 0.0
2018-Jun-19 12:27N 35°13' E 139°43'2 4.4
2018-Jun-19 12:00N 35°12' E 139°45'1 0.9
2018-Jun-19 11:23N 35°12' E 139°46'2 4.0
2018-Jun-19 10:46N 35°13' E 139°43'310.0
2018-Jun-19 10:30N 35°12' E 139°46'2 4.9
2018-Jun-19 10:00N 35°14' E 139°46'2 4.6
2018-Jun-19 09:30N 35°13' E 139°43'0 0.0
2018-Jun-19 09:00N 35°13' E 139°43'0 0.0
2018-Jun-19 08:30N 35°13' E 139°43'0 0.0
2018-Jun-19 08:00N 35°13' E 139°43'3 4.9
2018-Jun-19 07:27N 35°13' E 139°46'1 1.8
2018-Jun-19 06:39N 35°14' E 139°45'2 8.0
2018-Jun-19 06:27N 35°13' E 139°43'2 5.5
2018-Jun-19 06:00N 35°12' E 139°46'2 3.2
2018-Jun-19 05:27N 35°13' E 139°44'1 0.3
2018-Jun-19 03:12N 35°13' E 139°43'312.3
2018-Jun-19 02:59N 35°12' E 139°46'1 2.1
2018-Jun-19 02:27N 35°11' E 139°46'4 7.2
2018-Jun-19 01:57N 35°13' E 139°43'0 0.0
2018-Jun-19 01:23N 35°13' E 139°43'3 7.8
2018-Jun-19 00:59N 35°11' E 139°46'1 3.0
2018-Jun-19 00:29N 35°13' E 139°45'0 0.5
2018-Jun-19 00:00N 35°13' E 139°46'2 3.3
2018-Jun-18 23:28N 35°11' E 139°46'3 7.4
2018-Jun-18 23:00N 35°13' E 139°43'0 0.0
2018-Jun-18 22:27N 35°13' E 139°43'0 0.0
2018-Jun-18 22:00N 35°13' E 139°43'0 0.0
2018-Jun-18 21:28N 35°13' E 139°43'5 6.9
2018-Jun-18 20:44N 35°09' E 139°47'1 4.8
2018-Jun-18 20:30N 35°10' E 139°46'4 0.5
2018-Jun-18 12:55N 35°13' E 139°43'2 5.6
2018-Jun-18 12:30N 35°13' E 139°46'1 2.1
2018-Jun-18 11:58N 35°14' E 139°45'2 2.3
2018-Jun-18 11:16N 35°13' E 139°43'0 0.0
2018-Jun-18 10:57N 35°13' E 139°43'0 0.0
2018-Jun-18 10:16N 35°13' E 139°43'0 0.0
2018-Jun-18 09:51N 35°13' E 139°43'2 6.6
2018-Jun-18 09:30N 35°13' E 139°46'1 1.6
2018-Jun-18 09:00N 35°13' E 139°45'2 2.0
2018-Jun-18 08:15N 35°13' E 139°43'510.7
2018-Jun-18 07:49N 35°09' E 139°47'3 6.2
2018-Jun-18 07:21N 35°12' E 139°46'2 1.4
2018-Jun-18 05:42N 35°13' E 139°43'210.1
2018-Jun-18 05:27N 35°12' E 139°45'2 1.9
2018-Jun-18 04:20N 35°14' E 139°45'4 5.4
2018-Jun-18 03:32N 35°10' E 139°47'0 1.3
2018-Jun-18 03:13N 35°10' E 139°47'1 4.5
2018-Jun-18 03:00N 35°11' E 139°46'0 0.1
2018-Jun-17 23:58N 35°11' E 139°47'4 5.0
2018-Jun-17 23:12N 35°13' E 139°43'0 0.0
2018-Jun-17 22:49N 35°13' E 139°43'2 6.4
2018-Jun-17 22:29N 35°12' E 139°45'1 2.6
2018-Jun-17 21:59N 35°13' E 139°46'4 1.9
2018-Jun-17 19:52N 35°10' E 139°47'3 6.1
2018-Jun-17 19:24N 35°12' E 139°45'2 0.3
2018-Jun-17 13:29N 35°13' E 139°43'2 2.8
2018-Jun-17 12:40N 35°13' E 139°46'1 8.1
2018-Jun-17 12:30N 35°13' E 139°44'1 2.0
2018-Jun-17 12:00N 35°13' E 139°43'0 0.0
2018-Jun-17 11:29N 35°13' E 139°43'0 0.0
2018-Jun-17 10:57N 35°13' E 139°43'2 3.6
2018-Jun-17 10:25N 35°14' E 139°45'1 1.8
2018-Jun-17 10:00N 35°13' E 139°45'2 3.3
2018-Jun-17 09:30N 35°13' E 139°43'0 0.0
2018-Jun-17 08:59N 35°13' E 139°43'0 0.0
2018-Jun-17 08:30N 35°13' E 139°43'2 3.6
2018-Jun-17 07:54N 35°14' E 139°46'2 0.9
2018-Jun-17 05:24N 35°12' E 139°46'3 0.6
2018-Jun-17 00:28N 35°13' E 139°43'2 4.7
2018-Jun-17 00:00N 35°12' E 139°46'1 1.9
2018-Jun-16 23:30N 35°13' E 139°45'2 2.3
2018-Jun-16 22:39N 35°13' E 139°43'0 0.0
2018-Jun-16 22:28N 35°13' E 139°43'0 0.0
2018-Jun-16 22:00N 35°13' E 139°43'5 5.8
2018-Jun-16 21:10N 35°10' E 139°47'1 3.2
2018-Jun-16 20:47N 35°11' E 139°46'310.8
2018-Jun-16 20:30N 35°13' E 139°44'1 0.9
2018-Jun-16 19:55N 35°13' E 139°43'0 0.0
2018-Jun-16 19:26N 35°13' E 139°43'0 0.0
2018-Jun-16 18:55N 35°13' E 139°43'0 0.0
2018-Jun-16 18:25N 35°13' E 139°43'0 0.0
2018-Jun-16 17:52N 35°13' E 139°43'5 8.5
2018-Jun-16 17:17N 35°09' E 139°46'1 4.6
2018-Jun-16 16:58N 35°11' E 139°47'4 4.0
2018-Jun-16 15:59N 35°13' E 139°43'0 0.0
2018-Jun-16 15:25N 35°13' E 139°43'0 0.0
2018-Jun-16 14:58N 35°13' E 139°43'0 0.0
2018-Jun-16 14:23N 35°13' E 139°43'0 0.0
2018-Jun-16 13:59N 35°13' E 139°43'0 0.0
2018-Jun-16 13:26N 35°13' E 139°43'0 0.0
2018-Jun-16 13:00N 35°13' E 139°43'0 0.0
2018-Jun-16 12:29N 35°13' E 139°43'0 0.0
2018-Jun-16 12:00N 35°13' E 139°43'0 0.0
2018-Jun-16 11:15N 35°13' E 139°43'2 6.6
2018-Jun-16 10:56N 35°12' E 139°45'2 3.5
2018-Jun-16 10:30N 35°14' E 139°45'2 1.0
2018-Jun-16 08:52N 35°13' E 139°43'2 2.5
2018-Jun-16 08:07N 35°14' E 139°45'111.1
2018-Jun-16 08:00N 35°13' E 139°44'1 0.9
2018-Jun-16 07:04N 35°13' E 139°43'0 1.6
2018-Jun-16 07:00N 35°13' E 139°43'2 3.4
2018-Jun-16 06:21N 35°15' E 139°45'2 1.2
2018-Jun-16 04:46N 35°13' E 139°45'1 2.5
2018-Jun-16 04:19N 35°14' E 139°45'0 1.5
2018-Jun-16 04:00N 35°13' E 139°45'2 0.5
2018-Jun-16 00:43N 35°13' E 139°43'2 8.3
2018-Jun-16 00:30N 35°12' E 139°45'0 0.6
2018-Jun-16 00:00N 35°13' E 139°45'3 1.9
2018-Jun-15 22:38N 35°10' E 139°47'212.7
2018-Jun-15 22:30N 35°12' E 139°46'2 1.7
2018-Jun-15 21:02N 35°13' E 139°43'210.6
2018-Jun-15 20:49N 35°12' E 139°45'2 6.9
2018-Jun-15 20:30N 35°10' E 139°46'2 2.8
2018-Jun-15 19:46N 35°11' E 139°45'2 0.4
2018-Jun-15 13:59N 35°13' E 139°43'4 1.4
2018-Jun-15 11:00N 35°10' E 139°47'4 2.8
2018-Jun-15 09:30N 35°13' E 139°43'3 5.1
2018-Jun-15 08:59N 35°12' E 139°46'2 2.6
2018-Jun-15 08:24N 35°13' E 139°45'2 2.8
2018-Jun-15 07:45N 35°13' E 139°43'3 9.7
2018-Jun-15 07:29N 35°12' E 139°46'2 3.0
2018-Jun-15 06:49N 35°14' E 139°45'1 1.1
2018-Jun-15 05:34N 35°13' E 139°44'111.1
2018-Jun-15 05:30N 35°13' E 139°43'2 1.3
2018-Jun-15 03:38N 35°12' E 139°46'110.0
2018-Jun-15 03:30N 35°13' E 139°45'1 0.5
2018-Jun-15 00:51N 35°13' E 139°43'2 7.1
2018-Jun-15 00:30N 35°13' E 139°46'1 1.9
2018-Jun-15 00:00N 35°13' E 139°45'2 0.6
2018-Jun-14 21:24N 35°13' E 139°43'2 6.1
2018-Jun-14 20:59N 35°12' E 139°46'0 0.4
2018-Jun-14 20:06N 35°12' E 139°46'0 0.9
2018-Jun-14 19:55N 35°12' E 139°45'1 1.2
2018-Jun-14 19:14N 35°12' E 139°46'311.4
2018-Jun-14 19:00N 35°13' E 139°43'0 0.2
2018-Jun-14 18:30N 35°13' E 139°43'0 0.0
2018-Jun-14 18:00N 35°13' E 139°43'0 0.0
2018-Jun-14 17:30N 35°13' E 139°43'0 0.0
2018-Jun-14 17:00N 35°13' E 139°43'0 0.0
2018-Jun-14 16:29N 35°13' E 139°43'0 0.0
2018-Jun-14 15:59N 35°13' E 139°43'0 0.0
2018-Jun-14 15:28N 35°13' E 139°43'0 0.0
2018-Jun-14 15:00N 35°13' E 139°43'0 0.0
2018-Jun-14 14:30N 35°13' E 139°43'0 0.0
2018-Jun-14 14:00N 35°13' E 139°43'0 0.0
2018-Jun-14 13:30N 35°13' E 139°43'0 0.0
2018-Jun-14 13:00N 35°13' E 139°43'0 0.0
2018-Jun-14 12:30N 35°13' E 139°43'0 0.0
2018-Jun-14 11:58N 35°13' E 139°43'3 2.3
2018-Jun-14 10:51N 35°12' E 139°46'3 6.4
2018-Jun-14 10:26N 35°13' E 139°43'0 0.0
2018-Jun-14 09:58N 35°13' E 139°43'3 5.9
2018-Jun-14 09:30N 35°12' E 139°46'2 3.3
2018-Jun-14 08:58N 35°14' E 139°46'2 4.3
2018-Jun-14 08:30N 35°13' E 139°43'0 0.0
2018-Jun-14 07:55N 35°13' E 139°43'3 6.6
2018-Jun-14 07:29N 35°12' E 139°46'2 1.8
2018-Jun-14 06:15N 35°10' E 139°47'2 6.4
2018-Jun-14 05:57N 35°12' E 139°46'3 2.8
2018-Jun-14 04:50N 35°13' E 139°43'3 5.4
2018-Jun-14 04:19N 35°12' E 139°46'2 3.9
2018-Jun-14 03:52N 35°14' E 139°45'4 3.8
2018-Jun-14 02:51N 35°10' E 139°47'410.3
2018-Jun-14 02:27N 35°13' E 139°43'0 0.5
2018-Jun-14 02:00N 35°13' E 139°43'0 0.0
2018-Jun-14 01:22N 35°13' E 139°43'1 3.2
2018-Jun-14 01:00N 35°13' E 139°44'0 0.1
2018-Jun-14 00:08N 35°13' E 139°44'1 7.3
2018-Jun-13 23:58N 35°13' E 139°43'0 0.2
2018-Jun-13 22:18N 35°13' E 139°43'5 8.5
2018-Jun-13 21:45N 35°09' E 139°47'1 3.2
2018-Jun-13 21:29N 35°10' E 139°46'4 8.0
2018-Jun-13 21:00N 35°13' E 139°43'5 4.1
2018-Jun-13 19:48N 35°09' E 139°47'4 7.9
2018-Jun-13 19:17N 35°13' E 139°44'1 3.0
2018-Jun-13 18:56N 35°13' E 139°43'0 0.0
2018-Jun-13 18:30N 35°13' E 139°43'0 0.0
2018-Jun-13 18:00N 35°13' E 139°43'0 0.0
2018-Jun-13 17:30N 35°13' E 139°43'0 0.0
2018-Jun-13 16:49N 35°13' E 139°43'0 0.0
2018-Jun-13 16:29N 35°13' E 139°43'0 0.0
2018-Jun-13 16:00N 35°13' E 139°43'0 0.0
2018-Jun-13 15:21N 35°13' E 139°43'0 0.0
2018-Jun-13 14:59N 35°13' E 139°43'0 0.0
2018-Jun-13 14:26N 35°13' E 139°43'0 0.0
2018-Jun-13 13:59N 35°13' E 139°43'0 0.0
2018-Jun-13 13:28N 35°13' E 139°43'0 0.0
2018-Jun-13 12:44N 35°13' E 139°43'0 0.0
2018-Jun-13 12:20N 35°13' E 139°43'0 0.0
2018-Jun-13 12:00N 35°13' E 139°43'0 0.0
2018-Jun-13 11:26N 35°13' E 139°43'0 0.0
2018-Jun-13 10:51N 35°13' E 139°43'0 0.0
2018-Jun-13 10:27N 35°13' E 139°43'3 5.8
2018-Jun-13 09:59N 35°12' E 139°46'1 2.0
2018-Jun-13 09:23N 35°13' E 139°45'2 3.7
2018-Jun-13 08:55N 35°13' E 139°43'0 0.0
2018-Jun-13 08:26N 35°13' E 139°43'0 0.0
2018-Jun-13 08:00N 35°13' E 139°43'2 2.7
2018-Jun-13 07:19N 35°13' E 139°45'0 1.0
2018-Jun-13 07:00N 35°13' E 139°45'2 3.6
2018-Jun-13 06:28N 35°13' E 139°43'0 0.0
2018-Jun-13 05:59N 35°13' E 139°43'0 0.0
2018-Jun-13 05:23N 35°13' E 139°43'0 0.0
2018-Jun-13 05:00N 35°13' E 139°43'4 4.4
2018-Jun-13 03:59N 35°10' E 139°47'5 1.3
2018-Jun-13 00:26N 35°13' E 139°43'0 0.0
2018-Jun-12 23:51N 35°13' E 139°43'0 0.0
2018-Jun-12 23:24N 35°13' E 139°43'5 6.1
2018-Jun-12 22:40N 35°10' E 139°47'311.1
2018-Jun-12 22:24N 35°12' E 139°45'1 1.1
2018-Jun-12 21:19N 35°13' E 139°43'4 8.1
2018-Jun-12 20:48N 35°10' E 139°47'0 0.3
2018-Jun-12 20:26N 35°10' E 139°47'4 0.6
2018-Jun-12 13:15N 35°13' E 139°43'411.4
2018-Jun-12 12:55N 35°10' E 139°46'1 2.3
2018-Jun-12 12:25N 35°12' E 139°46'3 1.4
2018-Jun-12 10:23N 35°13' E 139°43'2 3.6
2018-Jun-12 09:47N 35°14' E 139°46'2 0.9
2018-Jun-12 07:21N 35°13' E 139°43'3 7.3
2018-Jun-12 06:59N 35°13' E 139°46'1 0.6
2018-Jun-12 05:23N 35°13' E 139°45'2 0.5
2018-Jun-12 01:29N 35°13' E 139°43'2 2.3
2018-Jun-12 00:39N 35°13' E 139°45'2 0.5
2018-Jun-11 21:20N 35°13' E 139°43'5 8.5
2018-Jun-11 20:45N 35°09' E 139°47'1 4.7
2018-Jun-11 20:27N 35°11' E 139°47'4 8.7
2018-Jun-11 19:59N 35°13' E 139°43'0 0.0
2018-Jun-11 18:21N 35°13' E 139°43'0 0.1
2018-Jun-11 17:19N 35°13' E 139°43'2 3.6
2018-Jun-11 16:50N 35°14' E 139°45'1 3.1
2018-Jun-11 16:30N 35°13' E 139°44'1 0.1
2018-Jun-11 09:11N 35°13' E 139°43'2 8.9
2018-Jun-11 08:58N 35°12' E 139°45'0 0.9
2018-Jun-11 08:26N 35°13' E 139°45'3 2.7
2018-Jun-11 07:26N 35°10' E 139°46'4 7.5
2018-Jun-11 06:55N 35°13' E 139°43'0 0.0
2018-Jun-11 06:28N 35°13' E 139°43'0 0.0
2018-Jun-11 05:59N 35°13' E 139°43'2 4.3
2018-Jun-11 05:25N 35°13' E 139°46'1 1.9
2018-Jun-11 05:00N 35°13' E 139°45'2 1.6
2018-Jun-11 03:56N 35°13' E 139°43'2 4.0
2018-Jun-11 03:26N 35°13' E 139°46'2 3.4
2018-Jun-11 02:57N 35°13' E 139°43'0 0.8
2018-Jun-11 02:30N 35°13' E 139°43'0 0.0
2018-Jun-11 02:00N 35°13' E 139°43'5 4.8
2018-Jun-11 00:59N 35°09' E 139°47'5 9.1
2018-Jun-11 00:27N 35°13' E 139°43'0 0.1
2018-Jun-10 23:58N 35°13' E 139°43'0 0.0
2018-Jun-10 23:30N 35°13' E 139°43'0 0.0
2018-Jun-10 23:00N 35°13' E 139°43'0 0.0
2018-Jun-10 22:30N 35°13' E 139°43'0 0.0
2018-Jun-10 21:59N 35°13' E 139°43'2 4.8
2018-Jun-10 21:28N 35°13' E 139°46'1 1.9
2018-Jun-10 20:59N 35°13' E 139°45'2 3.2
2018-Jun-10 20:30N 35°13' E 139°43'4 5.1
2018-Jun-10 19:38N 35°10' E 139°46'0 2.4
2018-Jun-10 19:28N 35°10' E 139°47'4 7.6
2018-Jun-10 19:00N 35°13' E 139°45'1 2.6
2018-Jun-10 18:29N 35°13' E 139°43'0 0.0
2018-Jun-10 17:58N 35°13' E 139°43'0 0.0
2018-Jun-10 17:29N 35°13' E 139°43'0 0.0
2018-Jun-10 16:56N 35°13' E 139°43'0 0.0
2018-Jun-10 16:30N 35°13' E 139°43'0 0.0
2018-Jun-10 15:59N 35°13' E 139°43'0 0.0
2018-Jun-10 15:19N 35°13' E 139°43'0 0.0
2018-Jun-10 13:47N 35°13' E 139°43'0 0.0
2018-Jun-10 12:58N 35°13' E 139°43'2 3.2
2018-Jun-10 12:20N 35°13' E 139°46'0 0.5
2018-Jun-10 12:00N 35°13' E 139°45'1 0.5
2018-Jun-10 09:53N 35°12' E 139°45'1 1.4
2018-Jun-10 09:26N 35°13' E 139°45'2 1.4
2018-Jun-10 08:14N 35°13' E 139°43'0 0.2
2018-Jun-10 07:45N 35°13' E 139°43'0 0.0
2018-Jun-10 07:15N 35°13' E 139°43'0 0.0
2018-Jun-10 07:00N 35°13' E 139°43'0 0.0
2018-Jun-10 06:25N 35°13' E 139°43'3 2.8
2018-Jun-10 05:12N 35°12' E 139°47'211.4
2018-Jun-10 05:00N 35°13' E 139°44'  
Track history (hours):
 
Tides and Currents Weather Stations Pressure Air Temp Water Temp Dewpoint Dewpoint Depression Visibility Wind Speed Wind Dir Waves Ship Positions

Amagimaru

Last reported at 2018-Jun-20 04:52 UTC. Time now 2018-Jun-20 05:16 UTC.
Position N 35°09' E 139°46'.

Length 38 m; draft 3.4 m.

Type: Tug. MMSI: 431101065.

Date/timePositionNaut miles runAvg speedWind from/ knotsBaromVisibWave heightAir tempDewpointWater temp
2018-Jun-20 04:52N 35°09' E 139°46'2 5.9
2018-Jun-20 04:30N 35°11' E 139°46'3 5.9
2018-Jun-20 04:00N 35°13' E 139°43'0 0.0
2018-Jun-20 03:28N 35°13' E 139°43'0 0.0
2018-Jun-20 03:00N 35°13' E 139°43'0 0.0
2018-Jun-20 02:30N 35°13' E 139°43'0 0.0
2018-Jun-20 02:00N 35°13' E 139°43'0 0.0
2018-Jun-20 01:28N 35°13' E 139°43'0 0.0
2018-Jun-19 23:59N 35°13' E 139°43'1 2.7
2018-Jun-19 23:29N 35°13' E 139°45'3 6.6
2018-Jun-19 22:58N 35°10' E 139°47'3 4.6
2018-Jun-19 22:25N 35°12' E 139°46'3 2.3
2018-Jun-19 21:18N 35°13' E 139°43'5 9.7
2018-Jun-19 20:50N 35°10' E 139°47'3 5.6
2018-Jun-19 20:21N 35°12' E 139°45'1 0.2
2018-Jun-19 16:15N 35°13' E 139°46'1 5.2
2018-Jun-19 15:58N 35°14' E 139°45'2 1.0
2018-Jun-19 13:52N 35°13' E 139°43'0 0.0
2018-Jun-19 13:27N 35°13' E 139°43'0 0.0
2018-Jun-19 12:52N 35°13' E 139°43'0 0.0
2018-Jun-19 12:27N 35°13' E 139°43'2 4.4
2018-Jun-19 12:00N 35°12' E 139°45'1 0.9
2018-Jun-19 11:23N 35°12' E 139°46'2 4.0
2018-Jun-19 10:46N 35°13' E 139°43'310.0
2018-Jun-19 10:30N 35°12' E 139°46'2 4.9
2018-Jun-19 10:00N 35°14' E 139°46'2 4.6
2018-Jun-19 09:30N 35°13' E 139°43'0 0.0
2018-Jun-19 09:00N 35°13' E 139°43'0 0.0
2018-Jun-19 08:30N 35°13' E 139°43'0 0.0
2018-Jun-19 08:00N 35°13' E 139°43'3 4.9
2018-Jun-19 07:27N 35°13' E 139°46'1 1.8
2018-Jun-19 06:39N 35°14' E 139°45'2 8.0
2018-Jun-19 06:27N 35°13' E 139°43'2 5.5
2018-Jun-19 06:00N 35°12' E 139°46'2 3.2
2018-Jun-19 05:27N 35°13' E 139°44'1 0.3
2018-Jun-19 03:12N 35°13' E 139°43'312.3
2018-Jun-19 02:59N 35°12' E 139°46'1 2.1
2018-Jun-19 02:27N 35°11' E 139°46'4 7.2
2018-Jun-19 01:57N 35°13' E 139°43'0 0.0
2018-Jun-19 01:23N 35°13' E 139°43'3 7.8
2018-Jun-19 00:59N 35°11' E 139°46'1 3.0
2018-Jun-19 00:29N 35°13' E 139°45'0 0.5
2018-Jun-19 00:00N 35°13' E 139°46'2 3.3
2018-Jun-18 23:28N 35°11' E 139°46'3 7.4
2018-Jun-18 23:00N 35°13' E 139°43'0 0.0
2018-Jun-18 22:27N 35°13' E 139°43'0 0.0
2018-Jun-18 22:00N 35°13' E 139°43'0 0.0
2018-Jun-18 21:28N 35°13' E 139°43'5 6.9
2018-Jun-18 20:44N 35°09' E 139°47'1 4.8
2018-Jun-18 20:30N 35°10' E 139°46'4 0.5
2018-Jun-18 12:55N 35°13' E 139°43'2 5.6
2018-Jun-18 12:30N 35°13' E 139°46'1 2.1
2018-Jun-18 11:58N 35°14' E 139°45'2 2.3
2018-Jun-18 11:16N 35°13' E 139°43'0 0.0
2018-Jun-18 10:57N 35°13' E 139°43'0 0.0
2018-Jun-18 10:16N 35°13' E 139°43'0 0.0
2018-Jun-18 09:51N 35°13' E 139°43'2 6.6
2018-Jun-18 09:30N 35°13' E 139°46'1 1.6
2018-Jun-18 09:00N 35°13' E 139°45'2 2.0
2018-Jun-18 08:15N 35°13' E 139°43'510.7
2018-Jun-18 07:49N 35°09' E 139°47'3 6.2
2018-Jun-18 07:21N 35°12' E 139°46'2 1.4
2018-Jun-18 05:42N 35°13' E 139°43'210.1
2018-Jun-18 05:27N 35°12' E 139°45'2 1.9
2018-Jun-18 04:20N 35°14' E 139°45'4 5.4
2018-Jun-18 03:32N 35°10' E 139°47'0 1.3
2018-Jun-18 03:13N 35°10' E 139°47'1 4.5
2018-Jun-18 03:00N 35°11' E 139°46'0 0.1
2018-Jun-17 23:58N 35°11' E 139°47'4 5.0
2018-Jun-17 23:12N 35°13' E 139°43'0 0.0
2018-Jun-17 22:49N 35°13' E 139°43'2 6.4
2018-Jun-17 22:29N 35°12' E 139°45'1 2.6
2018-Jun-17 21:59N 35°13' E 139°46'4 1.9
2018-Jun-17 19:52N 35°10' E 139°47'3 6.1
2018-Jun-17 19:24N 35°12' E 139°45'2 0.3
2018-Jun-17 13:29N 35°13' E 139°43'2 2.8
2018-Jun-17 12:40N 35°13' E 139°46'1 8.1
2018-Jun-17 12:30N 35°13' E 139°44'1 2.0
2018-Jun-17 12:00N 35°13' E 139°43'0 0.0
2018-Jun-17 11:29N 35°13' E 139°43'0 0.0
2018-Jun-17 10:57N 35°13' E 139°43'2 3.6
2018-Jun-17 10:25N 35°14' E 139°45'1 1.8
2018-Jun-17 10:00N 35°13' E 139°45'2 3.3
2018-Jun-17 09:30N 35°13' E 139°43'0 0.0
2018-Jun-17 08:59N 35°13' E 139°43'0 0.0
2018-Jun-17 08:30N 35°13' E 139°43'2 3.6
2018-Jun-17 07:54N 35°14' E 139°46'2 0.9
2018-Jun-17 05:24N 35°12' E 139°46'3 0.6
2018-Jun-17 00:28N 35°13' E 139°43'2 4.7
2018-Jun-17 00:00N 35°12' E 139°46'1 1.9
2018-Jun-16 23:30N 35°13' E 139°45'2 2.3
2018-Jun-16 22:39N 35°13' E 139°43'0 0.0
2018-Jun-16 22:28N 35°13' E 139°43'0 0.0
2018-Jun-16 22:00N 35°13' E 139°43'5 5.8
2018-Jun-16 21:10N 35°10' E 139°47'1 3.2
2018-Jun-16 20:47N 35°11' E 139°46'310.8
2018-Jun-16 20:30N 35°13' E 139°44'1 0.9
2018-Jun-16 19:55N 35°13' E 139°43'0 0.0
2018-Jun-16 19:26N 35°13' E 139°43'0 0.0
2018-Jun-16 18:55N 35°13' E 139°43'0 0.0
2018-Jun-16 18:25N 35°13' E 139°43'0 0.0
2018-Jun-16 17:52N 35°13' E 139°43'5 8.5
2018-Jun-16 17:17N 35°09' E 139°46'1 4.6
2018-Jun-16 16:58N 35°11' E 139°47'4 4.0
2018-Jun-16 15:59N 35°13' E 139°43'0 0.0
2018-Jun-16 15:25N 35°13' E 139°43'0 0.0
2018-Jun-16 14:58N 35°13' E 139°43'0 0.0
2018-Jun-16 14:23N 35°13' E 139°43'0 0.0
2018-Jun-16 13:59N 35°13' E 139°43'0 0.0
2018-Jun-16 13:26N 35°13' E 139°43'0 0.0
2018-Jun-16 13:00N 35°13' E 139°43'0 0.0
2018-Jun-16 12:29N 35°13' E 139°43'0 0.0
2018-Jun-16 12:00N 35°13' E 139°43'0 0.0
2018-Jun-16 11:15N 35°13' E 139°43'2 6.6
2018-Jun-16 10:56N 35°12' E 139°45'2 3.5
2018-Jun-16 10:30N 35°14' E 139°45'2 1.0
2018-Jun-16 08:52N 35°13' E 139°43'2 2.5
2018-Jun-16 08:07N 35°14' E 139°45'111.1
2018-Jun-16 08:00N 35°13' E 139°44'1 0.9
2018-Jun-16 07:04N 35°13' E 139°43'0 1.6
2018-Jun-16 07:00N 35°13' E 139°43'2 3.4
2018-Jun-16 06:21N 35°15' E 139°45'2 1.2
2018-Jun-16 04:46N 35°13' E 139°45'1 2.5
2018-Jun-16 04:19N 35°14' E 139°45'0 1.5
2018-Jun-16 04:00N 35°13' E 139°45'2 0.5
2018-Jun-16 00:43N 35°13' E 139°43'2 8.3
2018-Jun-16 00:30N 35°12' E 139°45'0 0.6
2018-Jun-16 00:00N 35°13' E 139°45'3 1.9
2018-Jun-15 22:38N 35°10' E 139°47'212.7
2018-Jun-15 22:30N 35°12' E 139°46'2 1.7
2018-Jun-15 21:02N 35°13' E 139°43'210.6
2018-Jun-15 20:49N 35°12' E 139°45'2 6.9
2018-Jun-15 20:30N 35°10' E 139°46'2 2.8
2018-Jun-15 19:46N 35°11' E 139°45'2 0.4
2018-Jun-15 13:59N 35°13' E 139°43'4 1.4
2018-Jun-15 11:00N 35°10' E 139°47'4 2.8
2018-Jun-15 09:30N 35°13' E 139°43'3 5.1
2018-Jun-15 08:59N 35°12' E 139°46'2 2.6
2018-Jun-15 08:24N 35°13' E 139°45'2 2.8
2018-Jun-15 07:45N 35°13' E 139°43'3 9.7
2018-Jun-15 07:29N 35°12' E 139°46'2 3.0
2018-Jun-15 06:49N 35°14' E 139°45'1 1.1
2018-Jun-15 05:34N 35°13' E 139°44'111.1
2018-Jun-15 05:30N 35°13' E 139°43'2 1.3
2018-Jun-15 03:38N 35°12' E 139°46'110.0
2018-Jun-15 03:30N 35°13' E 139°45'1 0.5
2018-Jun-15 00:51N 35°13' E 139°43'2 7.1
2018-Jun-15 00:30N 35°13' E 139°46'1 1.9
2018-Jun-15 00:00N 35°13' E 139°45'2 0.6
2018-Jun-14 21:24N 35°13' E 139°43'2 6.1
2018-Jun-14 20:59N 35°12' E 139°46'0 0.4
2018-Jun-14 20:06N 35°12' E 139°46'0 0.9
2018-Jun-14 19:55N 35°12' E 139°45'1 1.2
2018-Jun-14 19:14N 35°12' E 139°46'311.4
2018-Jun-14 19:00N 35°13' E 139°43'0 0.2
2018-Jun-14 18:30N 35°13' E 139°43'0 0.0
2018-Jun-14 18:00N 35°13' E 139°43'0 0.0
2018-Jun-14 17:30N 35°13' E 139°43'0 0.0
2018-Jun-14 17:00N 35°13' E 139°43'0 0.0
2018-Jun-14 16:29N 35°13' E 139°43'0 0.0
2018-Jun-14 15:59N 35°13' E 139°43'0 0.0
2018-Jun-14 15:28N 35°13' E 139°43'0 0.0
2018-Jun-14 15:00N 35°13' E 139°43'0 0.0
2018-Jun-14 14:30N 35°13' E 139°43'0 0.0
2018-Jun-14 14:00N 35°13' E 139°43'0 0.0
2018-Jun-14 13:30N 35°13' E 139°43'0 0.0
2018-Jun-14 13:00N 35°13' E 139°43'0 0.0
2018-Jun-14 12:30N 35°13' E 139°43'0 0.0
2018-Jun-14 11:58N 35°13' E 139°43'3 2.3
2018-Jun-14 10:51N 35°12' E 139°46'3 6.4
2018-Jun-14 10:26N 35°13' E 139°43'0 0.0
2018-Jun-14 09:58N 35°13' E 139°43'3 5.9
2018-Jun-14 09:30N 35°12' E 139°46'2 3.3
2018-Jun-14 08:58N 35°14' E 139°46'2 4.3
2018-Jun-14 08:30N 35°13' E 139°43'0 0.0
2018-Jun-14 07:55N 35°13' E 139°43'3 6.6
2018-Jun-14 07:29N 35°12' E 139°46'2 1.8
2018-Jun-14 06:15N 35°10' E 139°47'2 6.4
2018-Jun-14 05:57N 35°12' E 139°46'3 2.8
2018-Jun-14 04:50N 35°13' E 139°43'3 5.4
2018-Jun-14 04:19N 35°12' E 139°46'2 3.9
2018-Jun-14 03:52N 35°14' E 139°45'4 3.8
2018-Jun-14 02:51N 35°10' E 139°47'410.3
2018-Jun-14 02:27N 35°13' E 139°43'0 0.5
2018-Jun-14 02:00N 35°13' E 139°43'0 0.0
2018-Jun-14 01:22N 35°13' E 139°43'1 3.2
2018-Jun-14 01:00N 35°13' E 139°44'0 0.1
2018-Jun-14 00:08N 35°13' E 139°44'1 7.3
2018-Jun-13 23:58N 35°13' E 139°43'0 0.2
2018-Jun-13 22:18N 35°13' E 139°43'5 8.5
2018-Jun-13 21:45N 35°09' E 139°47'1 3.2
2018-Jun-13 21:29N 35°10' E 139°46'4 8.0
2018-Jun-13 21:00N 35°13' E 139°43'5 4.1
2018-Jun-13 19:48N 35°09' E 139°47'4 7.9
2018-Jun-13 19:17N 35°13' E 139°44'1 3.0
2018-Jun-13 18:56N 35°13' E 139°43'0 0.0
2018-Jun-13 18:30N 35°13' E 139°43'0 0.0
2018-Jun-13 18:00N 35°13' E 139°43'0 0.0
2018-Jun-13 17:30N 35°13' E 139°43'0 0.0
2018-Jun-13 16:49N 35°13' E 139°43'0 0.0
2018-Jun-13 16:29N 35°13' E 139°43'0 0.0
2018-Jun-13 16:00N 35°13' E 139°43'0 0.0
2018-Jun-13 15:21N 35°13' E 139°43'0 0.0
2018-Jun-13 14:59N 35°13' E 139°43'0 0.0
2018-Jun-13 14:26N 35°13' E 139°43'0 0.0
2018-Jun-13 13:59N 35°13' E 139°43'0 0.0
2018-Jun-13 13:28N 35°13' E 139°43'0 0.0
2018-Jun-13 12:44N 35°13' E 139°43'0 0.0
2018-Jun-13 12:20N 35°13' E 139°43'0 0.0
2018-Jun-13 12:00N 35°13' E 139°43'0 0.0
2018-Jun-13 11:26N 35°13' E 139°43'0 0.0
2018-Jun-13 10:51N 35°13' E 139°43'0 0.0
2018-Jun-13 10:27N 35°13' E 139°43'3 5.8
2018-Jun-13 09:59N 35°12' E 139°46'1 2.0
2018-Jun-13 09:23N 35°13' E 139°45'2 3.7
2018-Jun-13 08:55N 35°13' E 139°43'0 0.0
2018-Jun-13 08:26N 35°13' E 139°43'0 0.0
2018-Jun-13 08:00N 35°13' E 139°43'2 2.7
2018-Jun-13 07:19N 35°13' E 139°45'0 1.0
2018-Jun-13 07:00N 35°13' E 139°45'2 3.6
2018-Jun-13 06:28N 35°13' E 139°43'0 0.0
2018-Jun-13 05:59N 35°13' E 139°43'0 0.0
2018-Jun-13 05:23N 35°13' E 139°43'0 0.0
2018-Jun-13 05:00N 35°13' E 139°43'4 4.4
2018-Jun-13 03:59N 35°10' E 139°47'5 1.3
2018-Jun-13 00:26N 35°13' E 139°43'0 0.0
2018-Jun-12 23:51N 35°13' E 139°43'0 0.0
2018-Jun-12 23:24N 35°13' E 139°43'5 6.1
2018-Jun-12 22:40N 35°10' E 139°47'311.1
2018-Jun-12 22:24N 35°12' E 139°45'1 1.1
2018-Jun-12 21:19N 35°13' E 139°43'4 8.1
2018-Jun-12 20:48N 35°10' E 139°47'0 0.3
2018-Jun-12 20:26N 35°10' E 139°47'4 0.6
2018-Jun-12 13:15N 35°13' E 139°43'411.4
2018-Jun-12 12:55N 35°10' E 139°46'1 2.3
2018-Jun-12 12:25N 35°12' E 139°46'3 1.4
2018-Jun-12 10:23N 35°13' E 139°43'2 3.6
2018-Jun-12 09:47N 35°14' E 139°46'2 0.9
2018-Jun-12 07:21N 35°13' E 139°43'3 7.3
2018-Jun-12 06:59N 35°13' E 139°46'1 0.6
2018-Jun-12 05:23N 35°13' E 139°45'2 0.5
2018-Jun-12 01:29N 35°13' E 139°43'2 2.3
2018-Jun-12 00:39N 35°13' E 139°45'2 0.5
2018-Jun-11 21:20N 35°13' E 139°43'5 8.5
2018-Jun-11 20:45N 35°09' E 139°47'1 4.7
2018-Jun-11 20:27N 35°11' E 139°47'4 8.7
2018-Jun-11 19:59N 35°13' E 139°43'0 0.0
2018-Jun-11 18:21N 35°13' E 139°43'0 0.1
2018-Jun-11 17:19N 35°13' E 139°43'2 3.6
2018-Jun-11 16:50N 35°14' E 139°45'1 3.1
2018-Jun-11 16:30N 35°13' E 139°44'1 0.1
2018-Jun-11 09:11N 35°13' E 139°43'2 8.9
2018-Jun-11 08:58N 35°12' E 139°45'0 0.9
2018-Jun-11 08:26N 35°13' E 139°45'3 2.7
2018-Jun-11 07:26N 35°10' E 139°46'4 7.5
2018-Jun-11 06:55N 35°13' E 139°43'0 0.0
2018-Jun-11 06:28N 35°13' E 139°43'0 0.0
2018-Jun-11 05:59N 35°13' E 139°43'2 4.3
2018-Jun-11 05:25N 35°13' E 139°46'1 1.9
2018-Jun-11 05:00N 35°13' E 139°45'2 1.6
2018-Jun-11 03:56N 35°13' E 139°43'2 4.0
2018-Jun-11 03:26N 35°13' E 139°46'2 3.4
2018-Jun-11 02:57N 35°13' E 139°43'0 0.8
2018-Jun-11 02:30N 35°13' E 139°43'0 0.0
2018-Jun-11 02:00N 35°13' E 139°43'5 4.8
2018-Jun-11 00:59N 35°09' E 139°47'5 9.1
2018-Jun-11 00:27N 35°13' E 139°43'0 0.1
2018-Jun-10 23:58N 35°13' E 139°43'0 0.0
2018-Jun-10 23:30N 35°13' E 139°43'0 0.0
2018-Jun-10 23:00N 35°13' E 139°43'0 0.0
2018-Jun-10 22:30N 35°13' E 139°43'0 0.0
2018-Jun-10 21:59N 35°13' E 139°43'2 4.8
2018-Jun-10 21:28N 35°13' E 139°46'1 1.9
2018-Jun-10 20:59N 35°13' E 139°45'2 3.2
2018-Jun-10 20:30N 35°13' E 139°43'4 5.1
2018-Jun-10 19:38N 35°10' E 139°46'0 2.4
2018-Jun-10 19:28N 35°10' E 139°47'4 7.6
2018-Jun-10 19:00N 35°13' E 139°45'1 2.6
2018-Jun-10 18:29N 35°13' E 139°43'0 0.0
2018-Jun-10 17:58N 35°13' E 139°43'0 0.0
2018-Jun-10 17:29N 35°13' E 139°43'0 0.0
2018-Jun-10 16:56N 35°13' E 139°43'0 0.0
2018-Jun-10 16:30N 35°13' E 139°43'0 0.0
2018-Jun-10 15:59N 35°13' E 139°43'0 0.0
2018-Jun-10 15:19N 35°13' E 139°43'0 0.0
2018-Jun-10 13:47N 35°13' E 139°43'0 0.0
2018-Jun-10 12:58N 35°13' E 139°43'2 3.2
2018-Jun-10 12:20N 35°13' E 139°46'0 0.5
2018-Jun-10 12:00N 35°13' E 139°45'1 0.5
2018-Jun-10 09:53N 35°12' E 139°45'1 1.4
2018-Jun-10 09:26N 35°13' E 139°45'2 1.4
2018-Jun-10 08:14N 35°13' E 139°43'0 0.2
2018-Jun-10 07:45N 35°13' E 139°43'0 0.0
2018-Jun-10 07:15N 35°13' E 139°43'0 0.0
2018-Jun-10 07:00N 35°13' E 139°43'0 0.0
2018-Jun-10 06:25N 35°13' E 139°43'3 2.8
2018-Jun-10 05:12N 35°12' E 139°47'211.4
2018-Jun-10 05:00N 35°13' E 139°44'  

Dump ship's entire track history